Terminal Aerodrome Forecast
Issued by NWS

Home | Current Version | Previous Version | Text Only | Print | Product List | Glossary On
Versions: 1 2 3 4 5 6 7 8 9 10 11 12 13 14 15 16 17 18 19 20 21 22 23 24 25 26 27 28 29 30 31
000
FTUS45 KGJT 051729
TAFASE
TAF
KASE 051729Z 0518/0618 03004KT P6SM VCSH FEW035 SCT090 BKN150
     FM051900 30008KT P6SM VCTS SCT050CB BKN070
     FM052200 13012KT 6SM -TSRA BR OVC050CB
     FM060400 19005KT P6SM SCT050 BKN090=

USA.gov is the U.S. government's official web portal to all federal, state and local government web resources and services.